SwedenFixed distance
Österlen Spring Trail - ÖST Ultra 60k
12 Apr2025
Distance
60km
Finishers
370293 men77 women
Winning time
4:26:49h
Median pace
8.14km/h
Pace distribution
370 finishers · 6.50–13.49 km/h · mean 8.36
Every finisher ran the same 60 km course, so these paces are directly comparable.
Histogram of finisher pace. 370 finishers ranged from 6.50 to 13.49 kilometres per hour, with a mean of 8.36 and a median of 8.14. The busiest band is 7.5 to 8.0 kilometres per hour, with 66 finishers.
Results
Ranks 51–100 of 370
| Rank | Runner | Time | Pace | Cat. | Placing |
|---|---|---|---|---|---|
| 51 | 6:15:13h | 9.59 | M40 | 41st M · 14th M40 | |
| 52 | Bjäretriathlon | 6:16:59h | 9.55 | W45 | 11th F · 1st W45 |
| 53 | Team Cristal | 6:17:42h | 9.53 | W40 | 12th F · 4th W40 |
| 54 | Scania Road Runners | 6:18:57h | 9.50 | M45 | 42nd M · 7th M45 |
| 55 | Team Arduua | 6:19:02h | 9.50 | M35 | 43rd M · 9th M35 |
| 56 | SEA Kayak Billdal | 6:19:33h | 9.48 | M55 | 44th M · 1st M55 |
| 57 | Förlösa Goif | 6:20:06h | 9.47 | W40 | 13th F · 5th W40 |
| 58 | 6:20:08h | 9.47 | M40 | 45th M · 15th M40 | |
| 59 | Malmö Gerillalöpare | 6:20:24h | 9.46 | M50 | 46th M · 6th M50 |
| 60 | 6:21:17h | 9.44 | M50 | 47th M · 7th M50 | |
| 61 | Trail & Pandelygtesjov | 6:21:39h | 9.43 | M50 | 48th M · 8th M50 |
| 62 | 6:22:23h | 9.41 | M23 | 49th M · 9th M23 | |
| 63 | 6:22:42h | 9.41 | M35 | 50th M · 10th M35 | |
| 64 | Revsudden Sportsällskap | 6:23:13h | 9.39 | M40 | 51st M · 16th M40 |
| 65 | LA Familia LON | 6:24:46h | 9.36 | M45 | 52nd M · 8th M45 |
| 66 | Malmö Gerillalöpare | 6:25:00h | 9.35 | M23 | 53rd M · 10th M23 |
| 67 | Albo Byggnadshantverk | 6:25:30h | 9.34 | M23 | 54th M · 11th M23 |
| 68 | 6:25:51h | 9.33 | M40 | 55th M · 17th M40 | |
| 69 | 6:26:05h | 9.32 | W45 | 14th F · 2nd W45 | |
| 70 | Skydive Skåne Trailrun... | 6:26:11h | 9.32 | M40 | 56th M · 18th M40 |
| 71 | Trail & Pandelygtesjov | 6:26:38h | 9.31 | M50 | 57th M · 9th M50 |
| 72 | 6:27:04h | 9.30 | M40 | 58th M · 19th M40 | |
| 73 | Öckerö Räddningstjänst | 6:27:51h | 9.28 | M40 | 59th M · 20th M40 |
| 74 | Åhus CK | 6:27:51h | 9.28 | M35 | 59th M · 11th M35 |
| 75 | Trailfever | 6:28:04h | 9.28 | M40 | 61st M · 21st M40 |
| 76 | Trail and Error | 6:28:05h | 9.28 | M23 | 62nd M · 12th M23 |
| 77 | 6:28:30h | 9.27 | M40 | 63rd M · 22nd M40 | |
| 78 | Stenungsundslöparna | 6:28:30h | 9.27 | M35 | 63rd M · 12th M35 |
| 79 | Genarps IF | 6:28:53h | 9.26 | M45 | 65th M · 9th M45 |
| 80 | Dörrstopp | 6:29:28h | 9.24 | M40 | 66th M · 23rd M40 |
| 81 | 6:29:45h | 9.24 | M23 | 67th M · 13th M23 | |
| 82 | Kalmar RC Triathlon | 6:29:57h | 9.23 | W50 | 15th F · 3rd W50 |
| 83 | 6:30:26h | 9.22 | M40 | 68th M · 24th M40 | |
| 84 | Gerrebacka | 6:30:58h | 9.21 | M45 | 69th M · 10th M45 |
| 85 | CRC | 6:31:15h | 9.20 | M23 | 70th M · 14th M23 |
| 86 | Borås Löparklubb | 6:31:51h | 9.19 | M50 | 71st M · 10th M50 |
| 87 | 6:33:18h | 9.15 | M50 | 72nd M · 11th M50 | |
| 88 | 6:33:32h | 9.15 | M35 | 73rd M · 13th M35 | |
| 89 | Borås Löparklubb | 6:33:36h | 9.15 | M50 | 74th M · 12th M50 |
| 90 | Lithe Syra | 6:34:09h | 9.13 | W23 | 16th F · 3rd W23 |
| 91 | Malmö Gerillalöpare | 6:34:47h | 9.12 | M23 | 75th M · 15th M23 |
| 92 | CRC | 6:35:22h | 9.11 | M23 | 76th M · 16th M23 |
| 93 | Kristianstad Triathlon | 6:36:33h | 9.08 | M40 | 77th M · 25th M40 |
| 94 | Trummenäs RC | 6:37:18h | 9.06 | M35 | 78th M · 14th M35 |
| 95 | 6:38:43h | 9.03 | M50 | 79th M · 13th M50 | |
| 96 | Irunteam | 6:38:56h | 9.02 | M50 | 80th M · 14th M50 |
| 97 | 6:39:48h | 9.01 | W35 | 17th F · 4th W35 | |
| 98 | IFK Linköping OS | 6:40:49h | 8.98 | M45 | 81st M · 11th M45 |
| 99 | Malmö Gerillalöpare | 6:41:01h | 8.98 | M40 | 82nd M · 26th M40 |
| 100 | Sweden Runners | 6:41:04h | 8.98 | M55 | 83rd M · 2nd M55 |
- 5141st M · 14th M40Time6:15:13hPace9.59Cat.M40
- 52Bjäretriathlon11th F · 1st W45Time6:16:59hPace9.55Cat.W45
- 53Team Cristal12th F · 4th W40Time6:17:42hPace9.53Cat.W40
- 54Scania Road Runners42nd M · 7th M45Time6:18:57hPace9.50Cat.M45
- 55Team Arduua43rd M · 9th M35Time6:19:02hPace9.50Cat.M35
- 56SEA Kayak Billdal44th M · 1st M55Time6:19:33hPace9.48Cat.M55
- 57Förlösa Goif13th F · 5th W40Time6:20:06hPace9.47Cat.W40
- 5845th M · 15th M40Time6:20:08hPace9.47Cat.M40
- 59Malmö Gerillalöpare46th M · 6th M50Time6:20:24hPace9.46Cat.M50
- 6047th M · 7th M50Time6:21:17hPace9.44Cat.M50
- 61Trail & Pandelygtesjov48th M · 8th M50Time6:21:39hPace9.43Cat.M50
- 6249th M · 9th M23Time6:22:23hPace9.41Cat.M23
- 6350th M · 10th M35Time6:22:42hPace9.41Cat.M35
- 64Revsudden Sportsällskap51st M · 16th M40Time6:23:13hPace9.39Cat.M40
- 65LA Familia LON52nd M · 8th M45Time6:24:46hPace9.36Cat.M45
- 66Malmö Gerillalöpare53rd M · 10th M23Time6:25:00hPace9.35Cat.M23
- 67Albo Byggnadshantverk54th M · 11th M23Time6:25:30hPace9.34Cat.M23
- 6855th M · 17th M40Time6:25:51hPace9.33Cat.M40
- 6914th F · 2nd W45Time6:26:05hPace9.32Cat.W45
- 70Skydive Skåne Trailrun...56th M · 18th M40Time6:26:11hPace9.32Cat.M40
- 71Trail & Pandelygtesjov57th M · 9th M50Time6:26:38hPace9.31Cat.M50
- 7258th M · 19th M40Time6:27:04hPace9.30Cat.M40
- 73Öckerö Räddningstjänst59th M · 20th M40Time6:27:51hPace9.28Cat.M40
- 74Åhus CK59th M · 11th M35Time6:27:51hPace9.28Cat.M35
- 75Trailfever61st M · 21st M40Time6:28:04hPace9.28Cat.M40
- 76Trail and Error62nd M · 12th M23Time6:28:05hPace9.28Cat.M23
- 7763rd M · 22nd M40Time6:28:30hPace9.27Cat.M40
- 78Stenungsundslöparna63rd M · 12th M35Time6:28:30hPace9.27Cat.M35
- 79Genarps IF65th M · 9th M45Time6:28:53hPace9.26Cat.M45
- 80Dörrstopp66th M · 23rd M40Time6:29:28hPace9.24Cat.M40
- 8167th M · 13th M23Time6:29:45hPace9.24Cat.M23
- 82Kalmar RC Triathlon15th F · 3rd W50Time6:29:57hPace9.23Cat.W50
- 8368th M · 24th M40Time6:30:26hPace9.22Cat.M40
- 84Gerrebacka69th M · 10th M45Time6:30:58hPace9.21Cat.M45
- 85CRC70th M · 14th M23Time6:31:15hPace9.20Cat.M23
- 86Borås Löparklubb71st M · 10th M50Time6:31:51hPace9.19Cat.M50
- 8772nd M · 11th M50Time6:33:18hPace9.15Cat.M50
- 8873rd M · 13th M35Time6:33:32hPace9.15Cat.M35
- 89Borås Löparklubb74th M · 12th M50Time6:33:36hPace9.15Cat.M50
- 90Lithe Syra16th F · 3rd W23Time6:34:09hPace9.13Cat.W23
- 91Malmö Gerillalöpare75th M · 15th M23Time6:34:47hPace9.12Cat.M23
- 92CRC76th M · 16th M23Time6:35:22hPace9.11Cat.M23
- 93Kristianstad Triathlon77th M · 25th M40Time6:36:33hPace9.08Cat.M40
- 94Trummenäs RC78th M · 14th M35Time6:37:18hPace9.06Cat.M35
- 9579th M · 13th M50Time6:38:43hPace9.03Cat.M50
- 96Irunteam80th M · 14th M50Time6:38:56hPace9.02Cat.M50
- 9717th F · 4th W35Time6:39:48hPace9.01Cat.W35
- 98IFK Linköping OS81st M · 11th M45Time6:40:49hPace8.98Cat.M45
- 99Malmö Gerillalöpare82nd M · 26th M40Time6:41:01hPace8.98Cat.M40
- 100Sweden Runners83rd M · 2nd M55Time6:41:04hPace8.98Cat.M55
Showing ranks 51–100 of 370